createdAt,value
2018-12-07T11:11:12.719Z,717
2018-12-07T11:14:34.686Z,689
2018-12-07T11:17:59.497Z,659
2018-12-07T11:21:18.820Z,644
2018-12-07T11:24:41.001Z,626
2018-12-07T11:28:02.944Z,624
2018-12-07T11:31:25.289Z,610
2018-12-07T11:34:47.009Z,598
2018-12-07T11:38:09.050Z,598
2018-12-07T11:41:31.147Z,590
2018-12-07T11:44:53.189Z,606
2018-12-07T11:48:15.143Z,594
2018-12-07T11:51:37.180Z,602
2018-12-07T11:55:00.589Z,592
2018-12-07T11:58:21.463Z,591
2018-12-07T12:01:43.461Z,595
2018-12-07T12:05:05.418Z,602
2018-12-07T12:08:27.561Z,603
2018-12-07T12:11:49.780Z,651
2018-12-07T12:15:11.740Z,671
2018-12-07T12:18:33.739Z,695
2018-12-07T12:21:55.758Z,718
2018-12-07T12:25:17.856Z,749
2018-12-07T12:28:39.954Z,763
2018-12-07T12:32:02.022Z,775
2018-12-07T12:35:24.043Z,780
2018-12-07T12:38:46.146Z,800
2018-12-07T12:42:08.133Z,806
2018-12-07T12:48:52.299Z,816
2018-12-07T12:52:14.265Z,826
2018-12-07T12:55:36.487Z,827
2018-12-07T12:58:58.531Z,839
2018-12-07T13:02:20.628Z,837
2018-12-07T13:05:42.648Z,823
2018-12-07T13:09:04.782Z,811
2018-12-07T13:12:26.589Z,831
2018-12-07T13:15:48.785Z,851
2018-12-07T13:19:10.798Z,861
2018-12-07T13:22:32.798Z,848
2018-12-07T13:25:54.945Z,840
2018-12-07T13:29:16.843Z,853
2018-12-07T13:32:38.802Z,857
2018-12-07T13:36:00.869Z,844
2018-12-07T13:39:23.030Z,855
2018-12-07T13:49:12.045Z,577
2018-12-07T13:52:34.116Z,542
2018-12-07T13:55:56.241Z,558
2018-12-07T13:59:18.473Z,566
2018-12-07T14:02:40.527Z,594
2018-12-07T14:09:25.045Z,622
2018-12-07T14:12:47.122Z,640
2018-12-07T14:16:09.270Z,645
2018-12-07T14:19:31.464Z,653
2018-12-07T14:26:15.769Z,684
2018-12-07T14:29:37.978Z,681
2018-12-07T14:33:00.190Z,689
2018-12-07T14:36:22.266Z,678
2018-12-07T14:39:44.464Z,689
2018-12-07T14:43:06.624Z,700
2018-12-07T14:46:28.838Z,706
2018-12-07T14:49:50.949Z,699
2018-12-07T14:53:13.110Z,717
2018-12-07T14:56:35.387Z,719
2018-12-07T14:59:57.622Z,711
2018-12-07T15:03:19.666Z,732
2018-12-07T15:06:41.871Z,717
2018-12-07T15:10:04.062Z,731
2018-12-07T15:13:26.685Z,757
2018-12-07T15:16:48.351Z,748
2018-12-07T15:20:10.658Z,739
2018-12-07T15:23:34.512Z,740
2018-12-07T15:26:54.901Z,740
2018-12-07T15:30:17.161Z,736
2018-12-07T15:33:39.215Z,752
2018-12-07T15:37:01.491Z,744
2018-12-07T15:40:23.611Z,745
2018-12-07T15:43:45.732Z,737
2018-12-07T15:47:07.996Z,753
2018-12-07T15:50:30.166Z,738
2018-12-07T15:53:52.335Z,713
2018-12-07T15:57:14.579Z,746
2018-12-07T16:00:36.903Z,741
2018-12-07T16:03:58.970Z,750
2018-12-07T16:07:21.046Z,739
2018-12-07T16:10:43.285Z,711
2018-12-07T16:14:05.335Z,748
2018-12-07T16:17:27.768Z,766
2018-12-07T16:20:49.679Z,775
2018-12-07T16:24:11.987Z,766
2018-12-07T16:27:34.004Z,766
2018-12-07T16:30:56.297Z,749
2018-12-07T16:34:18.427Z,727
2018-12-07T16:37:40.768Z,723
2018-12-07T16:41:02.736Z,689
2018-12-07T16:44:24.945Z,697
2018-12-07T16:47:47.050Z,670
2018-12-07T16:51:09.409Z,660
2018-12-07T16:54:31.465Z,646
2018-12-07T16:57:53.661Z,650
2018-12-07T17:01:15.803Z,616
2018-12-07T17:04:41.432Z,611
2018-12-07T17:08:00.285Z,634
2018-12-07T17:11:22.278Z,620
2018-12-07T17:14:44.456Z,607
2018-12-07T17:18:06.711Z,604
2018-12-07T17:21:28.910Z,595
2018-12-07T17:24:51.019Z,594
2018-12-07T17:28:13.280Z,587
2018-12-07T17:31:35.341Z,597
2018-12-07T17:34:57.508Z,588
2018-12-07T17:38:19.756Z,574
2018-12-07T17:41:41.962Z,577
2018-12-07T17:45:04.042Z,578
2018-12-07T17:48:26.222Z,569
2018-12-07T17:51:48.468Z,564
2018-12-07T17:55:10.716Z,564
2018-12-07T17:58:32.903Z,553
2018-12-07T18:01:54.878Z,554
2018-12-07T18:05:17.068Z,558
2018-12-07T18:08:39.412Z,548
2018-12-07T18:12:01.635Z,550
2018-12-07T18:15:23.600Z,561
2018-12-07T18:22:07.964Z,548
2018-12-07T18:25:30.136Z,553
2018-12-07T18:28:52.333Z,532
2018-12-07T18:32:14.464Z,540
2018-12-07T18:35:36.733Z,538
2018-12-07T18:38:58.847Z,528
2018-12-07T18:42:21.099Z,526
2018-12-07T18:45:43.253Z,531
2018-12-07T18:49:05.430Z,514
2018-12-07T18:52:27.539Z,523
2018-12-07T18:55:49.700Z,533
2018-12-07T18:59:11.916Z,528
2018-12-07T19:02:34.068Z,526
2018-12-07T19:05:56.343Z,521
2018-12-07T19:09:19.187Z,523
2018-12-07T19:12:40.649Z,511
2018-12-07T19:16:02.831Z,504
2018-12-07T19:19:24.975Z,521
2018-12-07T19:22:47.221Z,512
2018-12-07T19:26:09.354Z,507
2018-12-07T19:29:31.539Z,515
2018-12-07T19:32:53.682Z,502
2018-12-07T19:36:15.938Z,514
2018-12-07T19:39:38.159Z,506
2018-12-07T19:43:00.284Z,499
2018-12-07T19:46:22.405Z,508
2018-12-07T19:49:44.497Z,506
2018-12-07T19:53:06.769Z,503
2018-12-07T19:56:28.932Z,500
2018-12-07T20:03:13.306Z,514
2018-12-07T20:06:35.464Z,485
2018-12-07T20:09:57.561Z,490
2018-12-07T20:13:19.716Z,493
2018-12-07T20:16:42.193Z,481
2018-12-07T20:20:04.061Z,477
2018-12-07T20:23:26.256Z,494
2018-12-07T20:26:48.459Z,486
2018-12-07T20:30:10.657Z,486
2018-12-07T20:33:32.865Z,488
2018-12-07T20:36:54.968Z,485
2018-12-07T20:40:17.197Z,485
2018-12-07T20:43:39.300Z,478
2018-12-07T20:47:01.685Z,477
2018-12-07T20:50:23.691Z,482
2018-12-07T20:53:45.975Z,460
2018-12-07T20:57:07.986Z,470
2018-12-07T21:00:30.228Z,454
2018-12-07T21:03:52.458Z,466
2018-12-07T21:07:14.573Z,471
2018-12-07T21:10:36.944Z,456
2018-12-07T21:13:58.982Z,461
2018-12-07T21:17:21.196Z,459
2018-12-07T21:20:43.284Z,462
2018-12-07T21:24:05.501Z,458
2018-12-07T21:27:27.575Z,457
2018-12-07T21:30:49.785Z,463
2018-12-07T21:34:12.000Z,455
2018-12-07T21:37:34.082Z,454
2018-12-07T21:40:56.277Z,458
2018-12-07T21:47:40.811Z,454
2018-12-07T21:51:02.883Z,458
2018-12-07T21:54:25.002Z,454
2018-12-07T21:57:47.192Z,461
2018-12-07T22:01:09.395Z,457
2018-12-07T22:04:31.677Z,456
2018-12-07T22:07:53.789Z,442
2018-12-07T22:11:16.013Z,442
2018-12-07T22:14:38.257Z,448
2018-12-07T22:18:00.262Z,480
2018-12-07T22:21:22.412Z,513
2018-12-07T22:24:44.553Z,518
2018-12-07T22:28:06.902Z,532
2018-12-07T22:31:28.900Z,538
2018-12-07T22:34:51.131Z,545
2018-12-07T22:38:13.526Z,567
2018-12-07T22:41:35.496Z,584
2018-12-07T22:44:57.660Z,590
2018-12-07T22:48:19.864Z,605
2018-12-07T22:51:42.138Z,619
2018-12-07T22:55:04.242Z,615
2018-12-07T22:58:26.274Z,599
2018-12-07T23:01:48.559Z,572
2018-12-07T23:05:10.735Z,573
2018-12-07T23:11:58.152Z,556
2018-12-07T23:15:17.296Z,552
2018-12-07T23:18:39.423Z,550
2018-12-07T23:22:01.680Z,544
2018-12-07T23:25:23.715Z,539
2018-12-07T23:28:45.919Z,534
2018-12-07T23:32:08.188Z,535
2018-12-07T23:35:30.413Z,536
2018-12-07T23:38:52.584Z,529
2018-12-07T23:42:14.708Z,531
2018-12-07T23:45:36.897Z,526
2018-12-07T23:48:58.996Z,513
2018-12-07T23:52:21.182Z,524
2018-12-07T23:55:43.307Z,519
2018-12-07T23:59:05.611Z,526
